カーブル の空港の天気 - METARとTAF

カーブル国際空港 ( OAKB / KBL ) - アフガニスタン カーブル
飛行場実況気象(Metar)
観測時間07/22 22:20 AFT (07/22 17:50 UTC)
風向・風速東南東 3m/s
視程10km以上
天気現象
なし
気温26℃
湿度58%
気圧1010hPa
METAROAKB 221750Z 11006KT CAVOK 26/17 Q1010 NOSIG RMK A2983 BLU BLU
過去の天気等 Google飛行場航空写真 Wunderground天気予報

過去48時間のMETAR

飛行場予報(TAF)
発表時間: 7/22 21:35 AFT (7/22 17:05 UTC)
予報対象時間: 22日22時 AFT ~ 23日22時 AFT
風向・風速東 6m/s
視程10km以上
なし
22日23時 AFT ~ 23日1時 AFT に徐々に
風向・風速不定 1m/s
23日6時 AFT ~ 23日9時 AFT に一時的に
視程5000m
天気現象もや
23日10時 AFT ~ 23日12時 AFT に徐々に
少しの雲 雲底高度 3050m
23日12時 AFT ~ 23日14時 AFT に徐々に
風向・風速東 6m/s
23日16時 AFT ~ 23日20時 AFT に一時的に
風向・風速北 8m/s 瞬間風速 13m/s
TAF OAKB 221705Z 2218/2318 10012KT CAVOK
BECMG 2219/2221 VRB02KT
TEMPO 2302/2305 5000 BR
BECMG 2306/2308 FEW100
BECMG 2308/2310 10012KT
TEMPO 2312/2316 01015G25KT